Time;durP1;ratioP1;P1;durP2;ratioP2;P2;SDS_P1;SDS_P2;PMS_P1;PMS_P2;Temp;Humidity;BMP_temperature;BMP_pressure;BME280_temperature;BME280_humidity;BME280_pressure;Samples;Min_cycle;Max_cycle;Signal;HPM_P1;HPM_P2
2023/04/22 00:01:41;;;;;;;4.67;2.90;;;11.20;70.50;;;;;;5030314;28;20230;-82
2023/04/22 00:04:07;;;;;;;4.40;2.67;;;11.20;70.60;;;;;;5019270;28;20047;-83
2023/04/22 00:06:34;;;;;;;4.85;2.83;;;11.20;70.80;;;;;;4976206;28;20419;-83
2023/04/22 00:09:00;;;;;;;5.03;2.67;;;11.20;70.80;;;;;;5011100;28;20504;-82
2023/04/22 00:11:25;;;;;;;4.55;2.88;;;11.20;70.80;;;;;;5020243;28;20028;-84
2023/04/22 00:13:51;;;;;;;4.68;2.85;;;11.20;70.90;;;;;;5041067;28;20037;-82
2023/04/22 00:16:17;;;;;;;4.57;2.43;;;11.20;70.90;;;;;;5030862;28;20504;-84
2023/04/22 00:18:43;;;;;;;4.50;2.58;;;11.20;71.00;;;;;;5037167;28;20662;-83
2023/04/22 00:21:08;;;;;;;4.73;2.80;;;11.20;71.00;;;;;;5022095;28;20074;-83
2023/04/22 00:23:34;;;;;;;5.47;2.58;;;11.20;70.90;;;;;;5030292;28;20575;-82
2023/04/22 00:26:00;;;;;;;6.80;3.00;;;11.20;71.00;;;;;;5009029;28;20063;-82
2023/04/22 00:28:26;;;;;;;4.63;2.78;;;11.20;71.00;;;;;;5021450;28;20025;-84
2023/04/22 00:30:52;;;;;;;5.17;2.97;;;11.20;71.00;;;;;;5029680;28;20128;-82
2023/04/22 00:33:18;;;;;;;5.25;3.08;;;11.20;71.10;;;;;;5038087;28;20372;-84
2023/04/22 00:35:45;;;;;;;4.70;2.90;;;11.20;71.30;;;;;;5018537;28;20113;-83
2023/04/22 00:38:11;;;;;;;4.95;3.05;;;11.10;71.50;;;;;;5003120;28;20060;-82
2023/04/22 00:40:37;;;;;;;5.70;3.00;;;11.10;71.40;;;;;;5033849;28;20560;-82
2023/04/22 00:43:03;;;;;;;5.13;2.95;;;11.10;71.50;;;;;;5009193;28;20528;-82
2023/04/22 00:45:29;;;;;;;4.45;2.80;;;11.10;71.60;;;;;;5027867;28;20177;-84
2023/04/22 00:47:56;;;;;;;4.57;2.80;;;11.00;71.80;;;;;;5039427;28;20021;-84
2023/04/22 00:50:21;;;;;;;5.10;3.00;;;11.10;71.90;;;;;;5009048;28;20032;-84
2023/04/22 00:52:47;;;;;;;4.82;2.78;;;11.00;71.90;;;;;;5014054;28;21149;-83
2023/04/22 00:55:14;;;;;;;5.13;2.70;;;11.00;72.00;;;;;;5008290;28;20431;-83
2023/04/22 00:57:40;;;;;;;4.32;2.80;;;11.00;72.10;;;;;;5021236;28;20356;-84
2023/04/22 01:00:08;;;;;;;4.95;2.78;;;11.00;72.20;;;;;;5010758;28;20029;-83
2023/04/22 01:02:36;;;;;;;4.63;2.88;;;11.00;72.20;;;;;;5011887;28;20038;-82
2023/04/22 01:05:02;;;;;;;4.53;2.90;;;11.00;72.30;;;;;;5010483;28;20025;-83
2023/04/22 01:07:28;;;;;;;4.78;2.80;;;11.00;72.20;;;;;;4983739;28;20021;-84
2023/04/22 01:09:54;;;;;;;4.47;3.13;;;11.00;72.30;;;;;;5014316;28;20361;-82
2023/04/22 01:12:20;;;;;;;4.07;2.53;;;10.90;72.30;;;;;;5031040;28;20647;-84
2023/04/22 01:14:45;;;;;;;4.40;2.72;;;11.00;72.40;;;;;;5003372;28;20701;-83
2023/04/22 01:17:13;;;;;;;5.17;2.90;;;10.90;72.40;;;;;;5014357;28;20504;-82
2023/04/22 01:19:40;;;;;;;5.40;3.15;;;10.90;72.60;;;;;;5035758;28;20399;-83
2023/04/22 01:22:07;;;;;;;4.78;2.97;;;10.90;72.70;;;;;;5043448;28;20021;-84
2023/04/22 01:24:33;;;;;;;6.03;3.13;;;10.80;72.90;;;;;;4997706;28;20333;-83
2023/04/22 01:26:59;;;;;;;4.53;2.65;;;10.80;72.90;;;;;;4994899;28;20029;-83
2023/04/22 01:29:25;;;;;;;4.45;2.80;;;10.80;72.90;;;;;;5032582;28;20079;-84
2023/04/22 01:31:51;;;;;;;5.07;3.10;;;10.80;73.10;;;;;;5041210;28;20059;-83
2023/04/22 01:34:17;;;;;;;5.30;3.13;;;10.70;73.10;;;;;;5014939;28;20284;-84
2023/04/22 01:36:43;;;;;;;5.28;3.03;;;10.80;73.20;;;;;;5021268;28;20025;-82
2023/04/22 01:39:09;;;;;;;5.43;3.20;;;10.70;73.30;;;;;;5020928;28;20029;-82
2023/04/22 01:41:35;;;;;;;5.20;3.20;;;10.70;73.30;;;;;;5001107;28;20033;-82
2023/04/22 01:44:02;;;;;;;5.45;3.03;;;10.70;73.40;;;;;;5021083;28;20051;-82
2023/04/22 01:46:28;;;;;;;4.63;2.85;;;10.70;73.60;;;;;;5025882;28;20063;-84
2023/04/22 01:48:54;;;;;;;4.60;3.03;;;10.70;73.40;;;;;;5034988;28;20123;-83
2023/04/22 01:51:20;;;;;;;5.25;2.95;;;10.70;73.50;;;;;;5021171;28;20033;-84
2023/04/22 01:53:49;;;;;;;5.75;3.10;;;10.70;73.50;;;;;;4997732;28;20297;-82
2023/04/22 01:56:16;;;;;;;5.07;2.80;;;10.60;73.90;;;;;;5042274;28;20033;-84
2023/04/22 01:58:42;;;;;;;5.47;3.40;;;10.60;73.70;;;;;;5008024;28;20054;-84
2023/04/22 02:01:11;;;;;;;5.30;3.17;;;10.60;73.60;;;;;;5041751;28;20035;-82
2023/04/22 02:03:37;;;;;;;4.95;2.92;;;10.60;74.10;;;;;;5031498;28;20064;-83
2023/04/22 02:06:03;;;;;;;6.37;3.00;;;10.60;73.70;;;;;;5033357;28;20577;-83
2023/04/22 02:08:29;;;;;;;4.78;2.88;;;10.50;73.90;;;;;;5019646;28;20706;-84
2023/04/22 02:10:55;;;;;;;4.70;2.92;;;10.60;74.00;;;;;;5005857;28;20388;-81
2023/04/22 02:13:21;;;;;;;4.73;2.97;;;10.50;74.00;;;;;;5011542;28;20128;-83
2023/04/22 02:15:47;;;;;;;5.50;3.05;;;10.60;74.20;;;;;;5022288;28;20136;-83
2023/04/22 02:18:12;;;;;;;5.10;3.08;;;10.50;74.20;;;;;;5016972;28;20051;-82
2023/04/22 02:20:38;;;;;;;5.27;3.03;;;10.60;74.40;;;;;;4991655;28;20509;-83
2023/04/22 02:23:04;;;;;;;5.10;3.05;;;10.50;74.40;;;;;;5014555;28;20030;-82
2023/04/22 02:25:30;;;;;;;4.77;2.90;;;10.50;74.40;;;;;;5015929;28;20273;-84
2023/04/22 02:27:56;;;;;;;5.68;3.05;;;10.50;74.40;;;;;;5012317;28;20025;-83
2023/04/22 02:30:22;;;;;;;6.07;3.58;;;10.50;74.40;;;;;;5041003;28;20049;-84
2023/04/22 02:32:48;;;;;;;5.15;3.00;;;10.50;74.50;;;;;;5001446;28;20032;-83
2023/04/22 02:35:14;;;;;;;5.70;3.10;;;10.50;74.50;;;;;;5007665;28;20028;-84
2023/04/22 02:37:39;;;;;;;5.53;3.20;;;10.50;74.70;;;;;;5027897;28;20788;-83
2023/04/22 02:40:06;;;;;;;5.47;3.40;;;10.50;74.70;;;;;;5018901;28;20064;-82
2023/04/22 02:42:32;;;;;;;5.05;3.20;;;10.50;74.70;;;;;;5012692;28;20036;-84
2023/04/22 02:44:58;;;;;;;5.27;3.20;;;10.40;74.80;;;;;;5036911;28;20644;-82
2023/04/22 02:47:23;;;;;;;5.25;2.88;;;10.40;74.90;;;;;;5015290;28;20024;-84
2023/04/22 02:49:49;;;;;;;5.13;3.17;;;10.40;75.00;;;;;;5001677;28;20111;-83
2023/04/22 02:52:15;;;;;;;5.27;3.17;;;10.40;75.00;;;;;;5011756;28;20094;-84
2023/04/22 02:54:41;;;;;;;5.22;3.22;;;10.40;75.90;;;;;;5015375;28;20276;-82
2023/04/22 02:57:07;;;;;;;4.60;3.00;;;10.40;75.10;;;;;;4997412;28;20053;-84
2023/04/22 02:59:34;;;;;;;5.70;3.25;;;10.40;75.20;;;;;;5012020;28;20024;-84
2023/04/22 03:01:59;;;;;;;5.53;3.60;;;10.40;75.40;;;;;;5005106;28;20150;-82
2023/04/22 03:04:25;;;;;;;5.93;3.60;;;10.40;75.40;;;;;;5004227;28;20046;-84
2023/04/22 03:06:51;;;;;;;5.82;3.67;;;10.40;75.50;;;;;;5038103;28;20022;-83
2023/04/22 03:09:17;;;;;;;5.57;3.30;;;10.40;75.50;;;;;;5026240;28;20039;-84
2023/04/22 03:11:43;;;;;;;5.43;3.23;;;10.30;75.60;;;;;;5019270;28;20028;-83
2023/04/22 03:14:08;;;;;;;5.70;3.38;;;10.40;75.70;;;;;;5022494;28;20025;-84
2023/04/22 03:16:35;;;;;;;5.03;3.10;;;10.40;75.70;;;;;;5028338;28;20640;-82
2023/04/22 03:19:00;;;;;;;5.57;3.47;;;10.40;75.70;;;;;;5017805;28;20052;-83
2023/04/22 03:21:27;;;;;;;4.70;3.10;;;10.30;75.70;;;;;;5027944;28;20060;-84
2023/04/22 03:23:53;;;;;;;5.20;3.00;;;10.30;75.80;;;;;;4993767;28;20248;-83
2023/04/22 03:26:19;;;;;;;4.43;2.92;;;10.30;75.90;;;;;;5003606;28;20017;-84
2023/04/22 03:28:45;;;;;;;6.85;3.72;;;10.30;75.90;;;;;;4976117;28;20243;-83
2023/04/22 03:31:11;;;;;;;6.72;3.70;;;10.30;76.10;;;;;;5014526;28;20033;-82
2023/04/22 03:33:37;;;;;;;5.47;3.37;;;10.30;76.10;;;;;;5016193;28;20205;-83
2023/04/22 03:36:03;;;;;;;5.25;3.08;;;10.30;76.10;;;;;;5010593;28;20021;-83
2023/04/22 03:38:29;;;;;;;5.40;3.33;;;10.30;76.10;;;;;;5014076;28;20025;-84
2023/04/22 03:40:55;;;;;;;5.22;3.15;;;10.30;76.10;;;;;;5014422;28;20029;-83
2023/04/22 03:43:20;;;;;;;5.50;3.50;;;10.30;76.30;;;;;;5021855;28;20025;-84
2023/04/22 03:45:46;;;;;;;5.20;3.10;;;10.30;76.30;;;;;;5008917;28;20138;-83
2023/04/22 03:48:12;;;;;;;4.93;3.07;;;10.30;76.40;;;;;;5002593;28;20025;-82
2023/04/22 03:50:37;;;;;;;5.35;3.35;;;10.30;76.40;;;;;;5016899;28;20120;-83
2023/04/22 03:53:03;;;;;;;5.53;3.53;;;10.30;76.50;;;;;;5001355;28;20033;-82
2023/04/22 03:55:29;;;;;;;5.90;3.55;;;10.30;76.60;;;;;;5005796;28;20032;-84
2023/04/22 03:57:54;;;;;;;6.93;3.90;;;10.30;76.70;;;;;;5034459;28;20163;-83
2023/04/22 04:00:20;;;;;;;5.63;3.38;;;10.30;76.80;;;;;;4999104;28;20075;-84
2023/04/22 04:02:46;;;;;;;5.85;3.33;;;10.30;76.80;;;;;;5026685;28;20044;-83
2023/04/22 04:05:12;;;;;;;5.47;3.17;;;10.30;76.80;;;;;;5036538;28;20029;-82
2023/04/22 04:07:38;;;;;;;4.60;2.75;;;10.30;76.80;;;;;;5020454;28;20548;-83
2023/04/22 04:10:04;;;;;;;5.23;3.23;;;10.30;76.90;;;;;;5025900;28;20021;-82
2023/04/22 04:12:30;;;;;;;4.57;3.20;;;10.30;76.90;;;;;;5018176;28;20400;-84
2023/04/22 04:14:56;;;;;;;5.30;3.15;;;10.30;76.90;;;;;;5019027;28;20017;-83
2023/04/22 04:17:24;;;;;;;4.73;2.87;;;10.30;76.90;;;;;;4987667;28;20025;-84
2023/04/22 04:19:51;;;;;;;5.35;3.10;;;10.30;77.10;;;;;;5038349;28;20021;-83
2023/04/22 04:22:17;;;;;;;5.75;3.25;;;10.30;77.10;;;;;;5018890;28;20078;-84
2023/04/22 04:24:43;;;;;;;6.03;3.38;;;10.30;77.10;;;;;;5011112;28;20030;-83
2023/04/22 04:27:10;;;;;;;6.20;3.10;;;10.30;77.20;;;;;;5014479;28;20450;-82
2023/04/22 04:29:36;;;;;;;5.40;3.10;;;10.30;77.20;;;;;;5020222;28;20048;-82
2023/04/22 04:32:03;;;;;;;4.70;2.90;;;10.30;77.30;;;;;;4999517;28;20048;-83
2023/04/22 04:34:30;;;;;;;5.05;3.05;;;10.20;77.30;;;;;;5039004;28;20434;-84
2023/04/22 04:36:56;;;;;;;5.30;3.30;;;10.30;77.40;;;;;;5025539;28;20451;-83
2023/04/22 04:39:22;;;;;;;4.60;2.90;;;10.30;77.40;;;;;;5026615;28;20108;-84
2023/04/22 04:41:48;;;;;;;4.78;3.22;;;10.20;78.20;;;;;;5014828;28;23456;-82
2023/04/22 04:44:14;;;;;;;5.80;3.30;;;10.20;77.30;;;;;;5042015;28;20028;-84
2023/04/22 04:46:40;;;;;;;4.68;3.10;;;10.20;77.50;;;;;;4998733;28;20495;-83
2023/04/22 04:49:11;;;;;;;5.77;3.23;;;10.20;77.60;;;;;;5039669;28;20429;-83
2023/04/22 04:51:37;;;;;;;5.45;3.55;;;10.20;77.70;;;;;;5036226;28;20021;-82
2023/04/22 04:54:03;;;;;;;5.70;3.20;;;10.20;77.70;;;;;;5041275;28;20078;-83
2023/04/22 04:56:29;;;;;;;5.33;3.23;;;10.20;77.80;;;;;;5028583;28;20150;-84
2023/04/22 04:58:55;;;;;;;5.95;3.30;;;10.20;78.20;;;;;;5027790;28;20056;-82
2023/04/22 05:01:21;;;;;;;5.18;3.10;;;10.20;78.10;;;;;;5028941;28;20061;-84
2023/04/22 05:03:47;;;;;;;5.60;3.30;;;10.20;78.20;;;;;;4991663;28;20513;-84
2023/04/22 05:06:12;;;;;;;5.38;3.30;;;10.30;78.40;;;;;;5015234;28;20091;-83
2023/04/22 05:08:38;;;;;;;5.07;3.03;;;10.30;78.40;;;;;;4995053;28;20485;-84
2023/04/22 05:11:04;;;;;;;6.45;3.80;;;10.30;78.60;;;;;;5016340;28;20695;-82
2023/04/22 05:13:30;;;;;;;6.15;3.65;;;10.30;78.60;;;;;;4994435;28;20025;-83
2023/04/22 05:15:56;;;;;;;6.60;3.53;;;10.30;78.60;;;;;;5033426;28;20512;-84
2023/04/22 05:18:21;;;;;;;6.35;3.75;;;10.30;78.70;;;;;;5005063;28;20028;-82
2023/04/22 05:20:47;;;;;;;5.03;3.37;;;10.30;78.70;;;;;;5036316;28;20028;-84
2023/04/22 05:23:13;;;;;;;6.22;3.67;;;10.40;79.00;;;;;;5005288;28;20794;-82
2023/04/22 05:25:39;;;;;;;6.35;3.60;;;10.40;79.10;;;;;;5037500;28;20604;-84
2023/04/22 05:28:05;;;;;;;5.47;3.37;;;10.40;79.30;;;;;;5010340;28;22936;-82
2023/04/22 05:30:30;;;;;;;5.40;3.47;;;10.50;80.20;;;;;;5034104;28;20088;-83
2023/04/22 05:32:56;;;;;;;5.80;3.80;;;10.50;79.60;;;;;;4994694;28;20502;-84
2023/04/22 05:35:22;;;;;;;5.38;3.60;;;10.50;79.70;;;;;;5026871;28;20083;-83
2023/04/22 05:37:47;;;;;;;5.30;3.60;;;10.60;79.80;;;;;;5038812;28;20402;-84
2023/04/22 05:40:13;;;;;;;6.03;3.78;;;10.60;79.80;;;;;;5022370;28;20288;-83
2023/04/22 05:42:40;;;;;;;5.20;3.40;;;10.70;80.00;;;;;;5038086;28;20492;-85
2023/04/22 05:45:07;;;;;;;5.10;3.30;;;10.70;80.10;;;;;;5029824;28;20238;-83
2023/04/22 05:47:32;;;;;;;5.60;3.70;;;10.70;79.90;;;;;;5036765;28;20087;-83
2023/04/22 05:49:58;;;;;;;5.80;3.50;;;10.80;80.00;;;;;;5014782;28;20029;-83
2023/04/22 05:52:23;;;;;;;5.75;3.50;;;10.80;80.10;;;;;;5020581;28;20494;-84
2023/04/22 05:54:49;;;;;;;5.87;3.43;;;10.80;80.90;;;;;;5006036;28;20024;-84
2023/04/22 05:57:15;;;;;;;5.13;3.35;;;10.90;80.40;;;;;;5034635;28;20029;-84
2023/04/22 05:59:40;;;;;;;5.37;3.53;;;10.90;80.50;;;;;;5014398;28;20064;-84
2023/04/22 06:02:06;;;;;;;4.90;3.30;;;11.00;80.80;;;;;;5007575;28;20725;-83
2023/04/22 06:04:32;;;;;;;4.88;3.25;;;11.10;80.90;;;;;;5004319;28;20049;-83
2023/04/22 06:06:58;;;;;;;5.83;3.43;;;11.20;81.00;;;;;;5008743;28;20276;-83
2023/04/22 06:09:24;;;;;;;6.00;3.58;;;11.30;80.90;;;;;;5019965;28;20025;-83
2023/04/22 06:11:50;;;;;;;4.97;3.13;;;11.30;80.90;;;;;;5004598;28;20101;-85
2023/04/22 06:14:16;;;;;;;6.30;3.72;;;11.40;81.20;;;;;;5020321;28;20036;-82
2023/04/22 06:16:42;;;;;;;5.27;3.17;;;11.50;81.20;;;;;;5007668;28;20032;-84
2023/04/22 06:19:07;;;;;;;4.97;3.17;;;11.60;81.30;;;;;;5018243;28;20025;-83
2023/04/22 06:21:35;;;;;;;5.93;3.30;;;11.70;81.50;;;;;;5017774;28;20036;-83
2023/04/22 06:24:01;;;;;;;5.95;3.55;;;11.80;81.30;;;;;;5008303;28;20483;-83
2023/04/22 06:26:27;;;;;;;5.55;3.50;;;11.90;81.40;;;;;;4987204;28;20108;-83
2023/04/22 06:28:53;;;;;;;5.57;3.47;;;12.00;81.60;;;;;;5012194;28;20174;-84
2023/04/22 06:31:18;;;;;;;6.25;3.65;;;12.10;81.80;;;;;;5023583;28;20622;-83
2023/04/22 06:33:45;;;;;;;6.67;3.90;;;12.20;81.80;;;;;;5033268;28;20020;-84
2023/04/22 06:36:12;;;;;;;6.30;4.13;;;12.30;81.50;;;;;;5034712;28;20106;-84
2023/04/22 06:38:38;;;;;;;5.85;3.63;;;12.40;81.10;;;;;;4991419;28;20029;-84
2023/04/22 06:41:04;;;;;;;5.63;3.53;;;12.40;81.10;;;;;;4997968;28;20029;-83
2023/04/22 06:43:30;;;;;;;6.10;4.05;;;12.50;81.20;;;;;;4995994;28;20241;-83
2023/04/22 06:45:55;;;;;;;5.53;3.70;;;12.60;81.50;;;;;;4999985;28;20057;-82
2023/04/22 06:48:21;;;;;;;5.35;3.53;;;12.70;81.60;;;;;;5020279;28;20025;-85
2023/04/22 06:50:47;;;;;;;6.13;3.85;;;12.70;81.50;;;;;;5012940;28;20021;-83
2023/04/22 06:53:13;;;;;;;5.13;3.47;;;12.80;81.50;;;;;;5012793;28;20033;-85
2023/04/22 06:55:39;;;;;;;6.15;3.90;;;12.90;81.80;;;;;;5011274;28;20115;-84
2023/04/22 06:58:04;;;;;;;6.83;4.07;;;13.00;82.20;;;;;;5018607;28;20039;-84
2023/04/22 07:00:30;;;;;;;5.75;3.65;;;13.10;82.20;;;;;;4999089;28;20162;-83
2023/04/22 07:02:56;;;;;;;5.90;4.10;;;13.20;81.90;;;;;;5020708;28;20495;-84
2023/04/22 07:05:22;;;;;;;5.95;4.20;;;13.30;81.90;;;;;;4999772;28;20047;-85
2023/04/22 07:07:48;;;;;;;7.43;4.50;;;13.40;81.90;;;;;;5016982;28;20037;-83
2023/04/22 07:10:13;;;;;;;6.68;4.05;;;13.40;82.60;;;;;;5015141;28;20021;-84
2023/04/22 07:12:39;;;;;;;6.22;4.25;;;13.50;82.10;;;;;;5014991;28;20529;-83
2023/04/22 07:15:06;;;;;;;6.25;4.05;;;13.60;81.90;;;;;;5008725;28;20444;-83
2023/04/22 07:17:32;;;;;;;6.23;4.10;;;13.70;81.40;;;;;;4984468;28;20842;-83
2023/04/22 07:19:58;;;;;;;6.00;3.78;;;13.70;81.10;;;;;;5002829;28;20033;-83
2023/04/22 07:22:24;;;;;;;6.10;4.03;;;13.80;81.10;;;;;;5012280;28;20494;-85
2023/04/22 07:24:49;;;;;;;5.55;3.78;;;13.80;81.10;;;;;;5012815;28;20078;-84
2023/04/22 07:27:16;;;;;;;6.73;4.40;;;13.90;81.30;;;;;;5005448;28;20045;-84
2023/04/22 07:29:41;;;;;;;5.90;3.83;;;13.90;81.50;;;;;;4987218;28;20301;-83
2023/04/22 07:32:07;;;;;;;6.53;4.40;;;14.00;82.50;;;;;;4989298;28;20249;-83
2023/04/22 07:34:33;;;;;;;5.63;3.85;;;14.00;81.90;;;;;;4985256;28;20065;-85
2023/04/22 07:36:59;;;;;;;5.78;3.95;;;14.10;82.30;;;;;;5009485;28;20051;-82
2023/04/22 07:39:25;;;;;;;5.80;4.20;;;14.20;82.50;;;;;;4981975;28;20038;-84
2023/04/22 07:41:52;;;;;;;5.70;4.05;;;14.30;82.30;;;;;;5012493;28;20465;-83
2023/04/22 07:44:20;;;;;;;5.95;4.30;;;14.50;82.30;;;;;;5018192;28;20567;-84
2023/04/22 07:46:47;;;;;;;5.82;4.07;;;14.60;82.30;;;;;;5007679;28;20021;-84
2023/04/22 07:49:13;;;;;;;7.13;4.63;;;14.70;82.20;;;;;;5019736;28;20028;-84
2023/04/22 07:51:39;;;;;;;6.60;4.77;;;14.80;81.90;;;;;;5017301;28;20529;-84
2023/04/22 07:54:05;;;;;;;7.20;4.78;;;14.90;81.80;;;;;;4992968;28;20510;-84
2023/04/22 07:56:31;;;;;;;6.68;4.28;;;14.90;81.40;;;;;;4993779;28;20482;-85
2023/04/22 07:58:57;;;;;;;6.85;4.57;;;15.00;81.10;;;;;;5016840;28;20458;-83
2023/04/22 08:01:23;;;;;;;5.67;4.00;;;15.00;80.90;;;;;;5012099;28;20094;-84
2023/04/22 08:03:49;;;;;;;6.53;4.30;;;15.00;80.70;;;;;;4995577;28;20013;-82
2023/04/22 08:06:14;;;;;;;6.23;4.10;;;15.00;80.50;;;;;;5034008;28;20101;-84
2023/04/22 08:08:40;;;;;;;6.65;4.32;;;15.00;80.40;;;;;;5027267;28;20124;-83
2023/04/22 08:11:06;;;;;;;6.43;4.00;;;15.00;80.60;;;;;;4998704;28;20033;-85
2023/04/22 08:13:32;;;;;;;6.68;4.30;;;15.00;80.90;;;;;;5001865;28;20561;-83
2023/04/22 08:16:01;;;;;;;6.43;4.18;;;15.10;81.40;;;;;;5002855;28;20024;-82
2023/04/22 08:18:27;;;;;;;5.43;4.07;;;15.10;81.80;;;;;;5008057;28;20021;-83
2023/04/22 08:20:54;;;;;;;6.57;4.30;;;15.20;82.30;;;;;;5010357;28;20031;-83
2023/04/22 08:23:20;;;;;;;6.03;3.75;;;15.40;82.70;;;;;;5009104;28;20722;-85
2023/04/22 08:25:50;;;;;;;7.65;4.55;;;15.60;83.40;;;;;;5037044;28;20386;-82
2023/04/22 08:28:16;;;;;;;5.70;4.17;;;15.90;84.20;;;;;;4998572;28;20513;-85
2023/04/22 08:30:41;;;;;;;5.80;3.92;;;16.20;85.20;;;;;;5020330;28;21150;-83
2023/04/22 08:33:07;;;;;;;5.90;4.30;;;16.60;86.50;;;;;;5014749;28;20043;-84
2023/04/22 08:35:34;;;;;;;4.97;3.90;;;17.00;87.10;;;;;;5010353;28;20085;-83
2023/04/22 08:38:01;;;;;;;4.65;3.85;;;17.50;87.30;;;;;;5005819;28;20167;-84
2023/04/22 08:40:27;;;;;;;4.55;3.50;;;18.00;88.90;;;;;;5011691;28;20440;-84
2023/04/22 08:42:54;;;;;;;4.40;3.60;;;18.60;88.90;;;;;;4974612;28;20482;-85
2023/04/22 08:45:21;;;;;;;5.68;3.65;;;19.20;88.00;;;;;;5018482;28;20402;-84
2023/04/22 08:47:48;;;;;;;4.80;3.33;;;19.60;85.60;;;;;;4982802;28;20021;-85
2023/04/22 08:50:14;;;;;;;4.60;3.28;;;19.90;83.20;;;;;;5018286;28;20132;-83
2023/04/22 08:52:43;;;;;;;4.13;3.00;;;20.10;81.80;;;;;;4995080;28;20486;-84
2023/04/22 08:55:09;;;;;;;4.13;3.10;;;20.20;80.50;;;;;;5023060;28;21714;-83
2023/04/22 08:57:44;;;;;;;4.00;2.90;;;20.40;80.00;;;;;;5033580;28;20051;-85
2023/04/22 09:00:11;;;;;;;3.40;2.78;;;20.30;77.10;;;;;;5024810;28;20417;-84
2023/04/22 09:02:40;;;;;;;4.07;2.90;;;20.40;77.80;;;;;;4990434;28;20036;-87
2023/04/22 09:05:09;;;;;;;3.92;3.10;;;20.20;76.90;;;;;;5014549;28;20273;-87
2023/04/22 09:07:35;;;;;;;4.50;3.40;;;20.20;76.60;;;;;;5007196;28;20049;-85
2023/04/22 09:10:01;;;;;;;5.10;3.22;;;20.10;76.60;;;;;;4997973;28;20027;-87
2023/04/22 09:12:27;;;;;;;4.70;3.00;;;20.10;76.60;;;;;;5003591;28;20013;-85
2023/04/22 09:14:53;;;;;;;4.17;2.97;;;20.10;77.60;;;;;;4976278;28;20051;-87
2023/04/22 09:17:33;;;;;;;3.70;2.80;;;20.10;77.20;;;;;;5004712;28;20117;-88
2023/04/22 09:20:01;;;;;;;3.88;2.95;;;20.20;75.70;;;;;;5013623;28;20127;-83
2023/04/22 09:22:35;;;;;;;4.25;3.10;;;20.20;76.70;;;;;;5025154;28;20112;-83
2023/04/22 09:25:03;;;;;;;4.15;2.95;;;20.20;76.50;;;;;;5018052;28;20137;-83
2023/04/22 09:27:29;;;;;;;5.27;3.20;;;20.30;76.00;;;;;;4993607;28;20492;-83
2023/04/22 09:29:55;;;;;;;4.30;2.90;;;20.30;75.40;;;;;;5013903;28;20538;-83
2023/04/22 09:32:24;;;;;;;4.47;3.30;;;20.20;74.80;;;;;;5015394;28;20406;-83
2023/04/22 09:34:54;;;;;;;4.70;3.30;;;20.10;73.90;;;;;;5024378;28;20041;-83
2023/04/22 09:37:29;;;;;;;4.47;3.40;;;20.00;73.50;;;;;;5011314;28;20025;-83
2023/04/22 09:39:55;;;;;;;5.50;3.58;;;19.90;73.10;;;;;;5003102;28;20029;-82
2023/04/22 09:42:21;;;;;;;5.17;3.60;;;19.70;73.30;;;;;;5014299;28;20033;-83
2023/04/22 09:44:51;;;;;;;4.82;3.30;;;19.60;73.30;;;;;;5002246;28;20033;-85
2023/04/22 09:47:19;;;;;;;4.53;3.08;;;19.40;73.20;;;;;;5031754;28;20044;-82
2023/04/22 09:49:48;;;;;;;4.85;2.92;;;19.20;73.10;;;;;;5001232;28;20017;-84
2023/04/22 09:52:25;;;;;;;4.10;2.80;;;19.10;73.10;;;;;;5011219;28;20067;-82
2023/04/22 09:54:52;;;;;;;4.47;2.90;;;18.90;73.10;;;;;;4996259;28;20032;-81
2023/04/22 09:57:20;;;;;;;4.10;3.05;;;18.80;73.30;;;;;;5008065;28;20021;-84
2023/04/22 09:59:46;;;;;;;4.18;3.10;;;18.70;73.20;;;;;;5012203;28;20021;-83
2023/04/22 10:02:11;;;;;;;5.50;3.33;;;18.50;73.20;;;;;;5011728;28;20029;-83
2023/04/22 10:04:37;;;;;;;5.47;3.00;;;18.40;73.50;;;;;;5020672;28;20021;-81
2023/04/22 10:07:03;;;;;;;4.60;3.08;;;18.20;73.60;;;;;;4988419;28;20017;-83
2023/04/22 10:09:29;;;;;;;4.27;3.10;;;18.10;73.70;;;;;;4993329;28;20737;-82
2023/04/22 10:11:57;;;;;;;4.75;3.08;;;17.90;74.00;;;;;;5023646;28;20035;-83
2023/04/22 10:14:24;;;;;;;4.07;2.90;;;17.80;74.50;;;;;;5003745;28;20036;-83
2023/04/22 10:16:57;;;;;;;4.32;2.92;;;17.60;74.80;;;;;;5012638;28;20053;-84
2023/04/22 10:19:25;;;;;;;4.97;3.20;;;17.50;75.60;;;;;;4996180;28;20032;-84
2023/04/22 10:22:02;;;;;;;5.13;3.00;;;17.40;75.20;;;;;;5025531;28;20029;-83
2023/04/22 10:24:33;;;;;;;6.07;3.20;;;17.20;76.60;;;;;;5002384;28;20045;-84
2023/04/22 10:27:05;;;;;;;4.03;3.00;;;17.10;76.10;;;;;;4975449;28;20021;-85
2023/04/22 10:29:42;;;;;;;4.78;3.05;;;16.90;76.70;;;;;;5013339;28;20259;-85
2023/04/22 10:32:17;;;;;;;3.93;2.97;;;16.80;78.20;;;;;;4983825;28;20113;-85
2023/04/22 10:34:45;;;;;;;4.90;3.40;;;16.70;78.80;;;;;;5001203;28;20024;-83
2023/04/22 10:37:12;;;;;;;4.18;3.05;;;16.60;78.10;;;;;;5015141;28;20025;-85
2023/04/22 10:39:40;;;;;;;4.75;3.08;;;16.40;78.70;;;;;;5004747;28;20021;-83
2023/04/22 10:42:11;;;;;;;5.05;3.10;;;16.40;79.80;;;;;;5023126;28;20101;-84
2023/04/22 10:44:53;;;;;;;5.10;3.13;;;16.30;80.50;;;;;;4993204;28;20033;-82
2023/04/22 10:47:30;;;;;;;5.57;3.13;;;16.20;82.50;;;;;;5029408;28;20025;-82
2023/04/22 10:50:22;;;;;;;3.83;2.72;;;16.20;82.20;;;;;;4979449;28;20521;-81
2023/04/22 10:52:54;;;;;;;4.90;3.28;;;16.20;83.20;;;;;;5028129;28;20031;-81
2023/04/22 10:55:21;;;;;;;5.00;3.38;;;16.20;82.50;;;;;;5000007;28;20182;-82
2023/04/22 10:57:49;;;;;;;4.77;3.00;;;16.20;82.90;;;;;;5026538;28;20036;-82
2023/04/22 11:00:24;;;;;;;4.80;3.45;;;16.30;83.60;;;;;;5008310;28;20039;-84
2023/04/22 11:02:53;;;;;;;5.22;3.30;;;16.30;84.40;;;;;;5035357;28;20044;-83
2023/04/22 11:05:20;;;;;;;5.70;3.30;;;16.30;84.50;;;;;;4972463;28;20242;-89
2023/04/22 11:07:49;;;;;;;4.72;3.47;;;16.40;84.80;;;;;;5001195;28;20001;-88
2023/04/22 11:10:40;;;;;;;5.03;3.43;;;16.40;85.30;;;;;;4990316;28;20037;-84
2023/04/22 11:13:08;;;;;;;4.38;3.30;;;16.40;86.20;;;;;;5004398;28;20032;-84
2023/04/22 11:15:36;;;;;;;5.75;3.70;;;16.50;86.00;;;;;;5027077;28;20032;-84
2023/04/22 11:18:02;;;;;;;5.50;3.78;;;16.50;86.40;;;;;;4994594;28;20033;-83
2023/04/22 11:20:29;;;;;;;5.22;3.60;;;16.50;86.80;;;;;;4975957;28;20049;-83
2023/04/22 11:22:56;;;;;;;6.93;3.87;;;16.50;87.40;;;;;;5028549;28;20139;-81
2023/04/22 11:25:23;;;;;;;6.18;3.90;;;16.60;88.20;;;;;;5032923;28;20033;-84
2023/04/22 11:27:49;;;;;;;5.95;4.03;;;16.60;88.90;;;;;;5004839;28;20056;-82
2023/04/22 11:30:23;;;;;;;5.63;3.70;;;16.60;89.40;;;;;;5022778;28;20461;-82
2023/04/22 11:32:51;;;;;;;5.28;3.97;;;16.70;90.00;;;;;;5001945;28;20131;-81
2023/04/22 11:35:38;;;;;;;5.70;4.10;;;16.80;90.40;;;;;;5012764;28;20029;-84
2023/04/22 11:38:05;;;;;;;5.47;3.90;;;16.80;90.60;;;;;;5004748;28;20038;-81
2023/04/22 11:40:33;;;;;;;5.15;3.90;;;16.90;90.70;;;;;;5011731;28;20533;-84
2023/04/22 11:43:02;;;;;;;5.43;3.70;;;16.90;90.70;;;;;;4982684;28;20036;-81
2023/04/22 11:45:28;;;;;;;5.65;4.00;;;16.90;90.70;;;;;;4999002;28;20033;-80
2023/04/22 11:47:55;;;;;;;5.47;4.03;;;16.90;90.80;;;;;;4990146;28;20271;-83
2023/04/22 11:50:23;;;;;;;6.18;4.20;;;16.90;90.90;;;;;;5032368;28;20506;-83
2023/04/22 11:52:51;;;;;;;6.13;4.18;;;16.90;91.10;;;;;;4999797;28;20579;-84
2023/04/22 11:55:26;;;;;;;7.90;4.93;;;16.80;91.20;;;;;;5011567;28;20033;-84
2023/04/22 11:57:58;;;;;;;6.75;4.75;;;16.80;91.30;;;;;;4998546;28;20029;-85
2023/04/22 12:00:32;;;;;;;8.40;5.18;;;16.80;91.30;;;;;;5016440;28;20029;-81
2023/04/22 12:03:00;;;;;;;7.47;5.07;;;16.70;91.40;;;;;;5006590;28;20037;-82
2023/04/22 12:05:34;;;;;;;7.88;5.47;;;16.60;91.60;;;;;;5029755;28;20437;-82
2023/04/22 12:08:02;;;;;;;8.43;5.60;;;16.60;91.60;;;;;;4996459;28;20287;-83
2023/04/22 12:10:28;;;;;;;7.97;5.22;;;16.50;91.80;;;;;;4998409;28;20020;-81
2023/04/22 12:12:54;;;;;;;8.20;5.25;;;16.50;92.00;;;;;;5018206;28;20033;-85
2023/04/22 12:15:19;;;;;;;8.80;5.40;;;16.50;92.20;;;;;;5000032;28;20032;-84
2023/04/22 12:17:45;;;;;;;8.73;5.30;;;16.50;92.30;;;;;;5027844;28;20031;-85
2023/04/22 12:20:12;;;;;;;9.15;5.43;;;16.40;92.40;;;;;;5008954;28;20297;-84
2023/04/22 12:22:38;;;;;;;8.15;5.57;;;16.40;92.70;;;;;;5015198;28;20037;-84
2023/04/22 12:25:04;;;;;;;8.40;5.90;;;16.40;92.60;;;;;;4989645;28;20755;-82
2023/04/22 12:27:30;;;;;;;9.02;5.57;;;16.30;92.70;;;;;;5014474;28;20053;-82
2023/04/22 12:29:56;;;;;;;8.52;5.53;;;16.30;93.10;;;;;;5019922;28;20641;-82
2023/04/22 12:32:24;;;;;;;9.13;5.55;;;16.30;93.20;;;;;;5030512;28;20028;-83
2023/04/22 12:34:49;;;;;;;8.43;5.63;;;16.30;93.40;;;;;;5005210;28;20383;-84
2023/04/22 12:37:16;;;;;;;8.93;5.65;;;16.30;93.60;;;;;;4989295;28;20032;-82
2023/04/22 12:39:43;;;;;;;10.38;6.22;;;16.30;93.60;;;;;;4995885;28;20476;-85
2023/04/22 12:42:09;;;;;;;8.90;5.60;;;16.30;93.80;;;;;;5035100;28;20211;-83
2023/04/22 12:44:35;;;;;;;9.57;6.13;;;16.30;94.00;;;;;;5002070;28;20025;-85
2023/04/22 12:47:01;;;;;;;9.30;5.95;;;16.30;94.20;;;;;;4991041;28;20281;-84